Strona główna
METAR-TAF:

METAR-TAF

Lotnisko :

Port lotniczy Arnhem-Deelen

Arnhem, Holandia

Szerokość geograficzna: 52-04N, Długość geograficzna: 005-53E, wysokość: 48 m

Aktualna obserwacja pogody

Raport powstał 16 minut temu, godzina 23:25 UTC
Wiatr 5 kt od wschód, zmienny między północno-północny wschód i południe
Temperatura 7°C
Wilgotność 53%
Ciśnienie 1023 hPa
Widzialność 10 km lub więcej

METAR: EHDL 042325Z AUTO 09005KT 030V170 9999 NCD 07/M02 Q1023 BLU

czas: 01:41 (23:41 UTC)


TAF: brakujący

Obserwacja i prognoza pogody dla ponad 4000 lotnisk (raport METAR i TAF).

Dostępne stacje oznaczono żółtymi i czerwonymi punktami na mapie.

Najedź kursorem aby zobaczyć nazwę stacji.

Kliknij aby zobaczyć obserwacje i prognozy pogody.

Aby zmienić mapę: kliknij na zielony przycisk z czarnym krzyżykiem, aby powiększyć; na zielony przycisk z myślnikiem, aby pomniejszyć; na zielone strzałki, aby przejść do map sąsiednich.


METAR-TAF: